sensor_id;sensor_type;location;lat;lon;timestamp;pressure;altitude;pressure_sealevel;temperature;humidity
75886;BME280;64561;44.018;10.144;2023-07-29T00:01:49;101402.94;;;24.07;79.74
75886;BME280;64561;44.018;10.144;2023-07-29T00:04:17;101400.41;;;24.03;80.21
75886;BME280;64561;44.018;10.144;2023-07-29T00:06:44;101409.03;;;24.06;80.10
75886;BME280;64561;44.018;10.144;2023-07-29T00:09:11;101400.38;;;24.04;80.58
75886;BME280;64561;44.018;10.144;2023-07-29T00:11:39;101391.56;;;24.08;80.78
75886;BME280;64561;44.018;10.144;2023-07-29T00:14:06;101387.25;;;24.06;81.17
75886;BME280;64561;44.018;10.144;2023-07-29T00:16:33;101384.63;;;24.07;81.24
75886;BME280;64561;44.018;10.144;2023-07-29T00:19:02;101393.34;;;24.06;81.02
75886;BME280;64561;44.018;10.144;2023-07-29T00:21:29;101382.88;;;24.06;81.10
75886;BME280;64561;44.018;10.144;2023-07-29T00:24:00;101380.25;;;24.08;81.05
75886;BME280;64561;44.018;10.144;2023-07-29T00:26:28;101382.88;;;24.08;81.18
75886;BME280;64561;44.018;10.144;2023-07-29T00:29:00;101383.75;;;24.07;81.24
75886;BME280;64561;44.018;10.144;2023-07-29T00:31:27;101376.81;;;24.06;81.79
75886;BME280;64561;44.018;10.144;2023-07-29T00:33:56;101376.78;;;24.07;81.53
75886;BME280;64561;44.018;10.144;2023-07-29T00:36:25;101377.78;;;24.00;81.71
75886;BME280;64561;44.018;10.144;2023-07-29T00:38:52;101369.06;;;24.01;82.07
75886;BME280;64561;44.018;10.144;2023-07-29T00:41:22;101366.34;;;24.06;81.94
75886;BME280;64561;44.018;10.144;2023-07-29T00:43:50;101367.19;;;24.06;81.83
75886;BME280;64561;44.018;10.144;2023-07-29T00:46:18;101372.53;;;24.02;81.68
75886;BME280;64561;44.018;10.144;2023-07-29T00:48:46;101376.88;;;24.03;81.91
75886;BME280;64561;44.018;10.144;2023-07-29T00:51:13;101376.81;;;24.06;81.88
75886;BME280;64561;44.018;10.144;2023-07-29T00:53:41;101377.66;;;24.06;81.65
75886;BME280;64561;44.018;10.144;2023-07-29T00:56:08;101375.03;;;24.06;81.69
75886;BME280;64561;44.018;10.144;2023-07-29T00:58:38;101374.16;;;24.07;81.47
75886;BME280;64561;44.018;10.144;2023-07-29T01:01:05;101372.41;;;24.06;81.65
75886;BME280;64561;44.018;10.144;2023-07-29T01:03:33;101372.41;;;24.06;81.68
75886;BME280;64561;44.018;10.144;2023-07-29T01:12:22;101375.16;;;24.02;81.39
75886;BME280;64561;44.018;10.144;2023-07-29T01:17:30;101364.72;;;24.00;81.93
75886;BME280;64561;44.018;10.144;2023-07-29T01:20:04;101369.09;;;24.00;81.90
75886;BME280;64561;44.018;10.144;2023-07-29T01:22:35;101363.84;;;24.01;81.92
75886;BME280;64561;44.018;10.144;2023-07-29T01:25:03;101359.47;;;24.02;82.15
75886;BME280;64561;44.018;10.144;2023-07-29T01:27:31;101359.47;;;24.02;82.11
75886;BME280;64561;44.018;10.144;2023-07-29T01:29:59;101347.34;;;23.98;81.43
75886;BME280;64561;44.018;10.144;2023-07-29T01:32:45;101343.00;;;23.98;81.52
75886;BME280;64561;44.018;10.144;2023-07-29T01:37:48;101343.00;;;23.98;82.15
75886;BME280;64561;44.018;10.144;2023-07-29T01:40:18;101346.50;;;23.97;82.26
75886;BME280;64561;44.018;10.144;2023-07-29T01:42:46;101355.31;;;23.93;82.39
75886;BME280;64561;44.018;10.144;2023-07-29T01:45:13;101356.16;;;23.93;82.39
75886;BME280;64561;44.018;10.144;2023-07-29T01:47:40;101357.16;;;23.89;82.29
75886;BME280;64561;44.018;10.144;2023-07-29T01:50:08;101361.47;;;23.90;81.89
75886;BME280;64561;44.018;10.144;2023-07-29T01:52:36;101356.34;;;23.86;81.93
75886;BME280;64561;44.018;10.144;2023-07-29T01:55:03;101360.69;;;23.87;82.09
75886;BME280;64561;44.018;10.144;2023-07-29T01:57:31;101353.69;;;23.87;82.26
75886;BME280;64561;44.018;10.144;2023-07-29T01:59:58;101348.53;;;23.84;82.08
75886;BME280;64561;44.018;10.144;2023-07-29T02:02:26;101352.00;;;23.85;82.13
75886;BME280;64561;44.018;10.144;2023-07-29T02:04:53;101356.31;;;23.87;82.18
75886;BME280;64561;44.018;10.144;2023-07-29T02:07:22;101353.75;;;23.86;81.37
75886;BME280;64561;44.018;10.144;2023-07-29T02:09:53;101352.91;;;23.84;81.37
75886;BME280;64561;44.018;10.144;2023-07-29T02:12:21;101351.22;;;23.81;81.42
75886;BME280;64561;44.018;10.144;2023-07-29T02:14:48;101357.44;;;23.77;81.42
75886;BME280;64561;44.018;10.144;2023-07-29T02:17:15;101353.13;;;23.73;80.78
75886;BME280;64561;44.018;10.144;2023-07-29T02:19:42;101347.13;;;23.69;80.20
75886;BME280;64561;44.018;10.144;2023-07-29T02:22:12;101352.34;;;23.71;80.72
75886;BME280;64561;44.018;10.144;2023-07-29T02:24:40;101357.59;;;23.68;80.18
75886;BME280;64561;44.018;10.144;2023-07-29T02:27:07;101367.28;;;23.61;79.42
75886;BME280;64561;44.018;10.144;2023-07-29T02:29:34;101371.78;;;23.56;80.16
75886;BME280;64561;44.018;10.144;2023-07-29T02:32:02;101364.09;;;23.50;79.91
75886;BME280;64561;44.018;10.144;2023-07-29T02:34:30;101377.09;;;23.51;79.78
75886;BME280;64561;44.018;10.144;2023-07-29T02:37:00;101365.00;;;23.46;79.83
75886;BME280;64561;44.018;10.144;2023-07-29T02:39:28;101357.31;;;23.40;79.72
75886;BME280;64561;44.018;10.144;2023-07-29T02:41:55;101358.16;;;23.42;79.88
75886;BME280;64561;44.018;10.144;2023-07-29T02:44:23;101341.00;;;23.28;79.55
75886;BME280;64561;44.018;10.144;2023-07-29T02:46:55;101358.28;;;23.36;79.56
75886;BME280;64561;44.018;10.144;2023-07-29T02:49:24;101366.94;;;23.38;79.57
75886;BME280;64561;44.018;10.144;2023-07-29T02:51:54;101355.56;;;23.40;79.28
75886;BME280;64561;44.018;10.144;2023-07-29T02:54:21;101356.50;;;23.36;79.30
75886;BME280;64561;44.018;10.144;2023-07-29T02:56:50;101362.66;;;23.34;78.84
75886;BME280;64561;44.018;10.144;2023-07-29T02:59:17;101362.91;;;23.23;79.76
75886;BME280;64561;44.018;10.144;2023-07-29T03:01:47;101342.41;;;23.01;79.97
75886;BME280;64561;44.018;10.144;2023-07-29T03:04:15;101358.66;;;23.17;79.66
75886;BME280;64561;44.018;10.144;2023-07-29T03:06:43;101346.41;;;23.19;79.77
75886;BME280;64561;44.018;10.144;2023-07-29T03:09:13;101355.88;;;23.25;80.47
75886;BME280;64561;44.018;10.144;2023-07-29T03:11:40;101350.81;;;23.17;80.27
75886;BME280;64561;44.018;10.144;2023-07-29T03:14:12;101356.91;;;23.16;79.98
75886;BME280;64561;44.018;10.144;2023-07-29T03:16:42;101360.41;;;23.17;80.39
75886;BME280;64561;44.018;10.144;2023-07-29T03:19:10;101351.81;;;23.10;80.82
75886;BME280;64561;44.018;10.144;2023-07-29T03:21:43;101372.50;;;23.19;80.67
75886;BME280;64561;44.018;10.144;2023-07-29T03:24:10;101375.13;;;23.19;81.04
75886;BME280;64561;44.018;10.144;2023-07-29T03:26:38;101355.13;;;23.18;80.81
75886;BME280;64561;44.018;10.144;2023-07-29T03:29:08;101351.56;;;23.22;80.58
75886;BME280;64561;44.018;10.144;2023-07-29T03:31:35;101344.69;;;23.20;80.81
75886;BME280;64561;44.018;10.144;2023-07-29T03:34:05;101334.28;;;23.17;81.04
75886;BME280;64561;44.018;10.144;2023-07-29T03:36:33;101349.72;;;23.27;81.12
75886;BME280;64561;44.018;10.144;2023-07-29T03:39:00;101342.81;;;23.25;81.31
75886;BME280;64561;44.018;10.144;2023-07-29T03:41:31;101347.19;;;23.24;81.13
75886;BME280;64561;44.018;10.144;2023-07-29T03:43:58;101330.84;;;23.15;80.86
75886;BME280;64561;44.018;10.144;2023-07-29T03:46:25;101337.84;;;23.13;80.88
75886;BME280;64561;44.018;10.144;2023-07-29T03:48:52;101351.75;;;23.13;81.38
75886;BME280;64561;44.018;10.144;2023-07-29T03:51:20;101344.03;;;23.09;80.99
75886;BME280;64561;44.018;10.144;2023-07-29T03:53:48;101357.00;;;23.12;81.00
75886;BME280;64561;44.018;10.144;2023-07-29T03:56:16;101351.06;;;23.05;81.35
75886;BME280;64561;44.018;10.144;2023-07-29T03:58:43;101363.13;;;23.11;81.48
75886;BME280;64561;44.018;10.144;2023-07-29T04:01:10;101344.94;;;23.06;81.52
75886;BME280;64561;44.018;10.144;2023-07-29T04:03:38;101344.03;;;23.09;81.68
75886;BME280;64561;44.018;10.144;2023-07-29T04:06:05;101353.63;;;23.07;81.68
75886;BME280;64561;44.018;10.144;2023-07-29T04:08:32;101368.50;;;23.01;81.66
75886;BME280;64561;44.018;10.144;2023-07-29T04:11:00;101381.63;;;22.98;81.55
75886;BME280;64561;44.018;10.144;2023-07-29T04:13:27;101380.81;;;22.96;82.09
75886;BME280;64561;44.018;10.144;2023-07-29T04:15:54;101373.00;;;22.93;82.63
75886;BME280;64561;44.018;10.144;2023-07-29T04:18:22;101386.06;;;22.93;82.41
75886;BME280;64561;44.018;10.144;2023-07-29T04:20:49;101366.31;;;22.77;83.30
75886;BME280;64561;44.018;10.144;2023-07-29T04:23:16;101362.91;;;22.73;83.30
75886;BME280;64561;44.018;10.144;2023-07-29T04:25:44;101370.69;;;22.78;83.52
75886;BME280;64561;44.018;10.144;2023-07-29T04:28:11;101382.72;;;22.85;83.44
75886;BME280;64561;44.018;10.144;2023-07-29T04:30:38;101371.47;;;22.81;83.14
75886;BME280;64561;44.018;10.144;2023-07-29T04:33:05;101386.91;;;22.94;83.39
75886;BME280;64561;44.018;10.144;2023-07-29T04:35:32;101386.88;;;22.97;83.72
75886;BME280;64561;44.018;10.144;2023-07-29T04:38:00;101367.00;;;22.88;83.55
75886;BME280;64561;44.018;10.144;2023-07-29T04:40:27;101367.78;;;22.95;83.88
75886;BME280;64561;44.018;10.144;2023-07-29T04:42:54;101383.38;;;22.98;83.29
75886;BME280;64561;44.018;10.144;2023-07-29T04:45:21;101385.97;;;22.98;83.17
75886;BME280;64561;44.018;10.144;2023-07-29T04:47:50;101381.56;;;23.01;83.70
75886;BME280;64561;44.018;10.144;2023-07-29T04:50:17;101379.78;;;23.05;84.05
75886;BME280;64561;44.018;10.144;2023-07-29T04:52:44;101365.81;;;23.06;83.47
75886;BME280;64561;44.018;10.144;2023-07-29T04:55:11;101356.28;;;23.03;83.84
75886;BME280;64561;44.018;10.144;2023-07-29T04:57:38;101369.09;;;23.16;83.76
75886;BME280;64561;44.018;10.144;2023-07-29T05:00:06;101369.09;;;23.17;84.19
75886;BME280;64561;44.018;10.144;2023-07-29T05:02:33;101367.28;;;23.19;83.90
75886;BME280;64561;44.018;10.144;2023-07-29T05:05:00;101366.41;;;23.20;84.22
75886;BME280;64561;44.018;10.144;2023-07-29T05:07:30;101367.28;;;23.19;84.05
75886;BME280;64561;44.018;10.144;2023-07-29T05:09:57;101368.13;;;23.23;84.51
75886;BME280;64561;44.018;10.144;2023-07-29T05:12:24;101369.78;;;23.25;84.43
75886;BME280;64561;44.018;10.144;2023-07-29T05:14:51;101361.94;;;23.25;85.04
75886;BME280;64561;44.018;10.144;2023-07-29T05:17:18;101353.31;;;23.23;84.11
75886;BME280;64561;44.018;10.144;2023-07-29T05:19:45;101361.78;;;23.35;83.36
75886;BME280;64561;44.018;10.144;2023-07-29T05:22:12;101366.88;;;23.41;84.05
75886;BME280;64561;44.018;10.144;2023-07-29T05:24:40;101355.63;;;23.37;83.72
75886;BME280;64561;44.018;10.144;2023-07-29T05:27:07;101364.09;;;23.50;83.29
75886;BME280;64561;44.018;10.144;2023-07-29T05:29:35;101361.34;;;23.56;84.19
75886;BME280;64561;44.018;10.144;2023-07-29T05:32:02;101368.06;;;23.66;84.68
75886;BME280;64561;44.018;10.144;2023-07-29T05:34:30;101370.56;;;23.72;84.12
75886;BME280;64561;44.018;10.144;2023-07-29T05:36:57;101343.72;;;23.64;84.12
75886;BME280;64561;44.018;10.144;2023-07-29T05:39:24;101371.28;;;23.81;84.12
75886;BME280;64561;44.018;10.144;2023-07-29T05:41:51;101367.75;;;23.83;84.17
75886;BME280;64561;44.018;10.144;2023-07-29T05:44:18;101382.44;;;23.89;83.46
75886;BME280;64561;44.018;10.144;2023-07-29T05:46:45;101378.88;;;23.91;83.13
75886;BME280;64561;44.018;10.144;2023-07-29T05:49:13;101379.69;;;23.93;82.88
75886;BME280;64561;44.018;10.144;2023-07-29T05:51:41;101387.53;;;23.93;82.84
75886;BME280;64561;44.018;10.144;2023-07-29T05:54:08;101393.47;;;24.00;83.22
75886;BME280;64561;44.018;10.144;2023-07-29T05:56:35;101400.47;;;24.00;83.40
75886;BME280;64561;44.018;10.144;2023-07-29T05:59:05;101401.31;;;24.02;83.19
75886;BME280;64561;44.018;10.144;2023-07-29T06:01:34;101396.94;;;24.01;83.38
75886;BME280;64561;44.018;10.144;2023-07-29T06:04:01;101388.25;;;24.00;83.96
75886;BME280;64561;44.018;10.144;2023-07-29T06:06:29;101398.56;;;24.06;84.08
75886;BME280;64561;44.018;10.144;2023-07-29T06:08:56;101403.72;;;24.09;83.96
75886;BME280;64561;44.018;10.144;2023-07-29T06:11:23;101396.72;;;24.11;83.63
75886;BME280;64561;44.018;10.144;2023-07-29T06:13:51;101406.22;;;24.15;83.74
75886;BME280;64561;44.018;10.144;2023-07-29T06:16:18;101409.59;;;24.21;82.53
75886;BME280;64561;44.018;10.144;2023-07-29T06:18:46;101404.34;;;24.21;82.52
75886;BME280;64561;44.018;10.144;2023-07-29T06:21:14;101399.88;;;24.26;82.49
75886;BME280;64561;44.018;10.144;2023-07-29T06:23:44;101404.28;;;24.24;82.28
75886;BME280;64561;44.018;10.144;2023-07-29T06:26:11;101391.19;;;24.24;82.33
75886;BME280;64561;44.018;10.144;2023-07-29T06:28:38;101399.81;;;24.29;82.63
75886;BME280;64561;44.018;10.144;2023-07-29T06:31:06;101391.91;;;24.30;82.30
75886;BME280;64561;44.018;10.144;2023-07-29T06:33:33;101398.81;;;24.33;81.96
75886;BME280;64561;44.018;10.144;2023-07-29T06:36:00;101400.59;;;24.32;80.71
75886;BME280;64561;44.018;10.144;2023-07-29T06:38:27;101410.13;;;24.35;80.91
75886;BME280;64561;44.018;10.144;2023-07-29T06:40:56;101403.91;;;24.39;81.93
75886;BME280;64561;44.018;10.144;2023-07-29T06:43:23;101395.19;;;24.40;81.93
75886;BME280;64561;44.018;10.144;2023-07-29T06:45:50;101402.13;;;24.41;80.02
75886;BME280;64561;44.018;10.144;2023-07-29T06:48:17;101403.00;;;24.43;80.71
75886;BME280;64561;44.018;10.144;2023-07-29T06:50:45;101403.72;;;24.48;82.06
75886;BME280;64561;44.018;10.144;2023-07-29T06:53:12;101397.44;;;24.55;82.22
75886;BME280;64561;44.018;10.144;2023-07-29T06:55:40;101393.84;;;24.59;82.12
75886;BME280;64561;44.018;10.144;2023-07-29T06:58:07;101394.69;;;24.60;82.21
75886;BME280;64561;44.018;10.144;2023-07-29T07:00:34;101396.38;;;24.62;81.67
75886;BME280;64561;44.018;10.144;2023-07-29T07:03:01;101391.06;;;24.66;81.11
75886;BME280;64561;44.018;10.144;2023-07-29T07:05:29;101390.16;;;24.67;81.07
75886;BME280;64561;44.018;10.144;2023-07-29T07:07:56;101394.44;;;24.71;81.49
75886;BME280;64561;44.018;10.144;2023-07-29T07:10:23;101391.81;;;24.71;81.84
75886;BME280;64561;44.018;10.144;2023-07-29T07:12:50;101408.22;;;24.77;81.89
75886;BME280;64561;44.018;10.144;2023-07-29T07:15:17;101410.84;;;24.77;81.21
75886;BME280;64561;44.018;10.144;2023-07-29T07:17:45;101400.31;;;24.79;81.55
75886;BME280;64561;44.018;10.144;2023-07-29T07:20:12;101404.63;;;24.81;81.16
75886;BME280;64561;44.018;10.144;2023-07-29T07:22:39;101405.38;;;24.85;80.50
75886;BME280;64561;44.018;10.144;2023-07-29T07:25:07;101402.81;;;24.83;80.73
75886;BME280;64561;44.018;10.144;2023-07-29T07:27:34;101402.00;;;24.81;80.62
75886;BME280;64561;44.018;10.144;2023-07-29T07:30:02;101405.53;;;24.79;80.23
75886;BME280;64561;44.018;10.144;2023-07-29T07:32:30;101412.53;;;24.80;79.69
75886;BME280;64561;44.018;10.144;2023-07-29T07:34:58;101408.16;;;24.80;78.52
75886;BME280;64561;44.018;10.144;2023-07-29T07:37:25;101409.00;;;24.81;75.30
75886;BME280;64561;44.018;10.144;2023-07-29T07:39:52;101413.41;;;24.79;76.15
75886;BME280;64561;44.018;10.144;2023-07-29T07:42:19;101409.91;;;24.80;76.79
75886;BME280;64561;44.018;10.144;2023-07-29T07:44:46;101412.44;;;24.83;77.53
75886;BME280;64561;44.018;10.144;2023-07-29T07:47:13;101410.69;;;24.83;77.92
75886;BME280;64561;44.018;10.144;2023-07-29T07:49:41;101411.34;;;24.92;78.30
75886;BME280;64561;44.018;10.144;2023-07-29T07:52:08;101413.91;;;24.93;78.76
75886;BME280;64561;44.018;10.144;2023-07-29T07:54:35;101414.75;;;24.95;79.57
75886;BME280;64561;44.018;10.144;2023-07-29T07:57:03;101412.88;;;25.00;80.35
75886;BME280;64561;44.018;10.144;2023-07-29T07:59:30;101413.66;;;25.02;79.89
75886;BME280;64561;44.018;10.144;2023-07-29T08:01:57;101408.25;;;25.08;78.69
75886;BME280;64561;44.018;10.144;2023-07-29T08:04:24;101409.16;;;25.07;78.42
75886;BME280;64561;44.018;10.144;2023-07-29T08:06:52;101415.31;;;25.06;79.02
75886;BME280;64561;44.018;10.144;2023-07-29T08:09:19;101423.88;;;25.12;79.63
75886;BME280;64561;44.018;10.144;2023-07-29T08:11:47;101422.19;;;25.10;79.14
75886;BME280;64561;44.018;10.144;2023-07-29T08:14:14;101420.38;;;25.13;78.52
75886;BME280;64561;44.018;10.144;2023-07-29T08:16:41;101418.66;;;25.12;77.93
75886;BME280;64561;44.018;10.144;2023-07-29T08:19:08;101417.75;;;25.14;77.68
75886;BME280;64561;44.018;10.144;2023-07-29T08:21:37;101415.09;;;25.16;78.08
75886;BME280;64561;44.018;10.144;2023-07-29T08:24:04;101419.41;;;25.18;77.99
75886;BME280;64561;44.018;10.144;2023-07-29T08:26:31;101417.56;;;25.20;77.39
75886;BME280;64561;44.018;10.144;2023-07-29T08:28:58;101412.31;;;25.22;76.40
75886;BME280;64561;44.018;10.144;2023-07-29T08:31:26;101423.66;;;25.21;75.26
75886;BME280;64561;44.018;10.144;2023-07-29T08:33:53;101423.66;;;25.21;74.65
75886;BME280;64561;44.018;10.144;2023-07-29T08:36:20;101421.75;;;25.27;75.39
75886;BME280;64561;44.018;10.144;2023-07-29T08:38:47;101416.22;;;25.38;76.10
75886;BME280;64561;44.018;10.144;2023-07-29T08:41:19;101412.72;;;25.39;75.85
75886;BME280;64561;44.018;10.144;2023-07-29T08:43:52;101413.31;;;25.47;75.09
75886;BME280;64561;44.018;10.144;2023-07-29T08:46:23;101419.38;;;25.49;74.67
75886;BME280;64561;44.018;10.144;2023-07-29T08:48:51;101410.75;;;25.46;74.32
75886;BME280;64561;44.018;10.144;2023-07-29T08:51:19;101421.28;;;25.44;74.14
75886;BME280;64561;44.018;10.144;2023-07-29T08:53:47;101423.72;;;25.50;74.22
75886;BME280;64561;44.018;10.144;2023-07-29T08:56:15;101412.84;;;25.64;75.55
75886;BME280;64561;44.018;10.144;2023-07-29T08:58:42;101423.25;;;25.67;76.90
75886;BME280;64561;44.018;10.144;2023-07-29T09:01:10;101423.09;;;25.72;76.20
75886;BME280;64561;44.018;10.144;2023-07-29T09:03:37;101424.81;;;25.73;76.47
75886;BME280;64561;44.018;10.144;2023-07-29T09:06:05;101415.13;;;25.75;76.58
75886;BME280;64561;44.018;10.144;2023-07-29T09:08:33;101414.34;;;25.73;76.51
75886;BME280;64561;44.018;10.144;2023-07-29T09:11:01;101422.22;;;25.73;76.30
75886;BME280;64561;44.018;10.144;2023-07-29T09:13:28;101415.94;;;25.78;75.88
75886;BME280;64561;44.018;10.144;2023-07-29T09:15:57;101423.78;;;25.78;75.72
75886;BME280;64561;44.018;10.144;2023-07-29T09:18:26;101422.97;;;25.76;74.48
75886;BME280;64561;44.018;10.144;2023-07-29T09:20:53;101428.25;;;25.75;74.48
75886;BME280;64561;44.018;10.144;2023-07-29T09:23:21;101421.25;;;25.75;72.89
75886;BME280;64561;44.018;10.144;2023-07-29T09:25:51;101424.75;;;25.76;73.97
75886;BME280;64561;44.018;10.144;2023-07-29T09:28:33;101422.03;;;25.79;74.58
75886;BME280;64561;44.018;10.144;2023-07-29T09:31:00;101423.47;;;25.89;74.38
75886;BME280;64561;44.018;10.144;2023-07-29T09:33:28;101414.47;;;25.98;75.13
75886;BME280;64561;44.018;10.144;2023-07-29T09:35:56;101418.59;;;26.07;73.33
75886;BME280;64561;44.018;10.144;2023-07-29T09:38:27;101410.63;;;26.10;72.63
75886;BME280;64561;44.018;10.144;2023-07-29T09:40:56;101413.78;;;26.21;72.30
75886;BME280;64561;44.018;10.144;2023-07-29T09:43:34;101418.09;;;26.22;73.26
75886;BME280;64561;44.018;10.144;2023-07-29T09:46:05;101417.19;;;26.23;72.95
75886;BME280;64561;44.018;10.144;2023-07-29T09:48:37;101414.41;;;26.28;74.05
75886;BME280;64561;44.018;10.144;2023-07-29T09:51:15;101422.28;;;26.56;72.42
75886;BME280;64561;44.018;10.144;2023-07-29T09:53:44;101418.66;;;26.60;71.91
75886;BME280;64561;44.018;10.144;2023-07-29T09:56:14;101417.47;;;26.68;71.85
75886;BME280;64561;44.018;10.144;2023-07-29T09:58:43;101418.66;;;26.60;72.09
75886;BME280;64561;44.018;10.144;2023-07-29T10:01:13;101425.84;;;26.53;71.06
75886;BME280;64561;44.018;10.144;2023-07-29T10:03:42;101428.59;;;26.50;71.88
75886;BME280;64561;44.018;10.144;2023-07-29T10:06:10;101416.34;;;26.51;71.96
75886;BME280;64561;44.018;10.144;2023-07-29T10:08:39;101423.81;;;26.63;72.23
75886;BME280;64561;44.018;10.144;2023-07-29T10:11:07;101428.84;;;26.69;72.00
75886;BME280;64561;44.018;10.144;2023-07-29T10:13:35;101424.34;;;26.73;70.59
75886;BME280;64561;44.018;10.144;2023-07-29T10:16:03;101424.38;;;26.71;71.31
75886;BME280;64561;44.018;10.144;2023-07-29T10:18:33;101422.69;;;26.70;70.68
75886;BME280;64561;44.018;10.144;2023-07-29T10:21:01;101433.16;;;26.72;70.50
75886;BME280;64561;44.018;10.144;2023-07-29T10:23:34;101429.09;;;26.86;69.62
75886;BME280;64561;44.018;10.144;2023-07-29T10:26:06;101427.16;;;26.93;69.62
75886;BME280;64561;44.018;10.144;2023-07-29T10:28:40;101434.84;;;26.98;68.38
75886;BME280;64561;44.018;10.144;2023-07-29T10:31:07;101436.53;;;27.00;68.35
75886;BME280;64561;44.018;10.144;2023-07-29T10:33:34;101430.63;;;26.94;68.65
75886;BME280;64561;44.018;10.144;2023-07-29T10:36:04;101428.84;;;26.94;70.16
75886;BME280;64561;44.018;10.144;2023-07-29T10:38:32;101433.03;;;27.00;69.41
75886;BME280;64561;44.018;10.144;2023-07-29T10:40:59;101428.53;;;27.03;70.26
75886;BME280;64561;44.018;10.144;2023-07-29T10:43:36;101430.19;;;27.06;70.86
75886;BME280;64561;44.018;10.144;2023-07-29T10:48:53;101415.84;;;27.16;67.18
75886;BME280;64561;44.018;10.144;2023-07-29T10:51:36;101417.28;;;27.25;67.13
75886;BME280;64561;44.018;10.144;2023-07-29T10:54:09;101430.38;;;27.26;67.31
75886;BME280;64561;44.018;10.144;2023-07-29T10:56:40;101421.47;;;27.30;68.70
75886;BME280;64561;44.018;10.144;2023-07-29T11:01:41;101427.00;;;27.46;66.35
75886;BME280;64561;44.018;10.144;2023-07-29T11:07:18;101425.34;;;27.44;65.62
75886;BME280;64561;44.018;10.144;2023-07-29T11:09:55;101422.59;;;27.47;65.84
75886;BME280;64561;44.018;10.144;2023-07-29T11:12:51;101421.97;;;27.64;67.47
75886;BME280;64561;44.018;10.144;2023-07-29T11:15:23;101430.56;;;27.69;65.53
75886;BME280;64561;44.018;10.144;2023-07-29T11:17:57;101423.47;;;27.71;63.28
75886;BME280;64561;44.018;10.144;2023-07-29T11:20:27;101419.97;;;27.70;64.05
75886;BME280;64561;44.018;10.144;2023-07-29T11:22:57;101421.75;;;27.70;62.82
75886;BME280;64561;44.018;10.144;2023-07-29T11:25:27;101416.09;;;27.57;63.02
75886;BME280;64561;44.018;10.144;2023-07-29T11:27:58;101415.69;;;27.68;65.43
75886;BME280;64561;44.018;10.144;2023-07-29T11:30:26;101405.16;;;27.68;61.91
75886;BME280;64561;44.018;10.144;2023-07-29T11:32:55;101403.69;;;27.84;63.81
75886;BME280;64561;44.018;10.144;2023-07-29T11:35:25;101397.28;;;27.91;63.96
75886;BME280;64561;44.018;10.144;2023-07-29T11:37:54;101399.84;;;27.93;63.00
75886;BME280;64561;44.018;10.144;2023-07-29T11:40:25;101405.25;;;27.90;62.78
75886;BME280;64561;44.018;10.144;2023-07-29T11:42:53;101407.88;;;27.90;63.40
75886;BME280;64561;44.018;10.144;2023-07-29T11:45:22;101404.16;;;27.95;63.37
75886;BME280;64561;44.018;10.144;2023-07-29T11:48:06;101396.25;;;27.95;63.50
75886;BME280;64561;44.018;10.144;2023-07-29T11:50:34;101390.66;;;28.03;64.73
75886;BME280;64561;44.018;10.144;2023-07-29T11:53:02;101391.34;;;28.08;66.36
75886;BME280;64561;44.018;10.144;2023-07-29T11:55:30;101392.69;;;28.18;65.36
75886;BME280;64561;44.018;10.144;2023-07-29T11:57:58;101383.69;;;28.24;62.23
75886;BME280;64561;44.018;10.144;2023-07-29T12:00:25;101386.78;;;28.34;62.47
75886;BME280;64561;44.018;10.144;2023-07-29T12:02:53;101385.03;;;28.34;62.16
75886;BME280;64561;44.018;10.144;2023-07-29T12:05:24;101388.00;;;28.25;62.47
75886;BME280;64561;44.018;10.144;2023-07-29T12:07:52;101389.41;;;28.34;62.16
75886;BME280;64561;44.018;10.144;2023-07-29T12:10:20;101381.34;;;28.38;63.44
75886;BME280;64561;44.018;10.144;2023-07-29T12:12:50;101380.63;;;28.35;62.66
75886;BME280;64561;44.018;10.144;2023-07-29T12:15:27;101386.78;;;28.34;62.68
75886;BME280;64561;44.018;10.144;2023-07-29T12:17:58;101387.22;;;28.45;62.42
75886;BME280;64561;44.018;10.144;2023-07-29T12:20:29;101386.44;;;28.43;63.77
75886;BME280;64561;44.018;10.144;2023-07-29T12:22:59;101388.03;;;28.47;64.42
75886;BME280;64561;44.018;10.144;2023-07-29T12:25:29;101389.16;;;28.62;61.89
75886;BME280;64561;44.018;10.144;2023-07-29T12:28:08;101380.78;;;28.52;63.04
75886;BME280;64561;44.018;10.144;2023-07-29T12:30:41;101377.28;;;28.52;63.66
75886;BME280;64561;44.018;10.144;2023-07-29T12:33:09;101382.69;;;28.48;62.00
75886;BME280;64561;44.018;10.144;2023-07-29T12:35:37;101380.66;;;28.33;63.51
75886;BME280;64561;44.018;10.144;2023-07-29T12:38:05;101380.91;;;28.27;64.45
75886;BME280;64561;44.018;10.144;2023-07-29T12:40:37;101377.72;;;28.19;65.62
75886;BME280;64561;44.018;10.144;2023-07-29T12:43:04;101383.75;;;28.22;65.70
75886;BME280;64561;44.018;10.144;2023-07-29T12:45:35;101382.53;;;28.31;66.01
75886;BME280;64561;44.018;10.144;2023-07-29T12:48:03;101384.34;;;28.29;63.66
75886;BME280;64561;44.018;10.144;2023-07-29T12:50:30;101380.78;;;28.30;65.19
75886;BME280;64561;44.018;10.144;2023-07-29T12:52:57;101382.31;;;28.36;65.36
75886;BME280;64561;44.018;10.144;2023-07-29T12:55:27;101384.94;;;28.36;65.78
75886;BME280;64561;44.018;10.144;2023-07-29T12:57:54;101384.81;;;28.39;65.22
75886;BME280;64561;44.018;10.144;2023-07-29T13:00:21;101386.44;;;28.43;64.05
75886;BME280;64561;44.018;10.144;2023-07-29T13:02:48;101382.81;;;28.45;65.12
75886;BME280;64561;44.018;10.144;2023-07-29T13:05:15;101379.34;;;28.45;64.57
75886;BME280;64561;44.018;10.144;2023-07-29T13:07:43;101388.44;;;28.36;64.34